Winhall, VT

11:31 PM EDT on September 02, 2014 (GMT -0400)
Pinnacle Summit - Stratton Mountain | Change Station
CLOSE
Current Station
Personal Weather Station
Location: Stratton Mountain, VT
Elevation: 2290 ft
Nearby Weather Stations

Elev 2290 ft 43.13 °N, 72.87 °W | Updated 14 minutes ago

Overcast
Overcast
66.0 °F
Feels Like 66.0 °F
N
2.0
Wind Variable Wind from NE
Gusts 9.0 mph

Today
High -- | Low -- °F
--% Chance of Precip.
Yesterday
High -- | Low -- °F
Precip. -- in
6:16 AM 7:24 PM
First Quarter, 58% visible
Pressure 29.76 in
Visibility 0.8 miles
Clouds Scattered Clouds 1000 ft
Scattered Clouds 1800 ft
Mostly Cloudy 2400 ft
Dew Point 64 °F
Humidity 93%
Rainfall 0.60 in
Snow Depth Not available.
UV 0 out of 12
Pollen 6.80 out of 12
Ozone Good
PM2.5 Good
Flu Activity Not available.
SPECI KVSF 030320Z AUTO 30009G28KT 3/4SM +RA BR SCT010 SCT018 BKN024 21/20 A2976 RMK AO2 PK WND 28028/0315 RAB16 P0035 T02110200

More Conditions Fewer Conditions

Pressure 29.76 in
Visibility 0.8 miles
Clouds Scattered Clouds 1000 ft
Scattered Clouds 1800 ft
Mostly Cloudy 2400 ft
Dew Point 64 °F
Humidity 93%
Rainfall 0.60 in
Snow Depth Not available.
UV 0 out of 12
Pollen 6.80 out of 12
Ozone Good
PM2.5 Good
Flu Activity Not available.
SPECI KVSF 030320Z AUTO 30009G28KT 3/4SM +RA BR SCT010 SCT018 BKN024 21/20 A2976 RMK AO2 PK WND 28028/0315 RAB16 P0035 T02110200

More Conditions Fewer Conditions

10-Day Weather Forecast

Almanac

Astronomy

Sep. 02, 2014 Rise Set
Actual Time 6:16 AM EDT 7:24 PM EDT
Civil Twilight 5:47 AM EDT 7:54 PM EDT
Nautical Twilight 5:12 AM EDT 8:28 PM EDT
Astronomical Twilight 4:35 AM EDT 9:05 PM EDT
Moon 2:09 PM EDT (9/2) No Moon Set
Length of Visible Light 14h 06m
Length of Day
13h 07m
Tomorrow will be 2m 50s shorter.
First Quarter, 58% of the Moon is Illuminated
Today
First Quarter
Sep 8
Full
Sep 15
Last Quarter
Sep 24
New
Oct 1
First Quarter

Today's Extremes

State Highs State Lows

Community

WunderPhotos

Upload Photos

1,749,867 photos uploaded!

WunderBlogs® & News

Nearby

Air Quality

  Air Quality AQ Index Pollutant
Yesterday Good
OZONE
Yesterday Good
PM2.5
Current Good
OZONE
Current Good
PM2.5
Tuesday Moderate
PM2.5
Wednesday Good
PM2.5
Wednesday Good
OZONE
Thursday Good
PM2.5
Thursday Good
OZONE

Snow Depth

Station Depth Elevation
No new snow has been reported.

Earthquake Activity

City Distance Mag. Time & Date
No recent earthquake activity has been reported nearby.
Minimum magnitude displayed is 2.5.

Coastal Water Temperatures

Place Temperature
No Stations Reporting

Nearby Weather Stations